Time;durP1;ratioP1;P1;durP2;ratioP2;P2;SDS_P1;SDS_P2;PMS_P1;PMS_P2;Temp;Humidity;BMP_temperature;BMP_pressure;BME280_temperature;BME280_humidity;BME280_pressure;Samples;Min_cycle;Max_cycle;Signal;HPM_P1;HPM_P2
2022/09/26 00:02:02;;;;;;;9.43;4.43;;;;;;;;;;5066250;28;20053;-76
2022/09/26 00:04:32;;;;;;;13.18;5.05;;;;;;;;;;5066033;28;20048;-72
2022/09/26 00:07:02;;;;;;;15.18;5.43;;;;;;;;;;5065590;28;20045;-74
2022/09/26 00:09:32;;;;;;;17.75;5.47;;;;;;;;;;5065396;28;20063;-72
2022/09/26 00:12:03;;;;;;;9.98;4.20;;;;;;;;;;5065664;28;20053;-71
2022/09/26 00:14:34;;;;;;;10.93;4.60;;;;;;;;;;5065859;28;20067;-72
2022/09/26 00:17:07;;;;;;;9.25;4.18;;;;;;;;;;5066026;28;20369;-78
2022/09/26 00:19:37;;;;;;;11.40;4.82;;;;;;;;;;5065877;28;20045;-73
2022/09/26 00:22:07;;;;;;;10.65;5.18;;;;;;;;;;5066937;28;20045;-75
2022/09/26 00:24:37;;;;;;;14.07;5.35;;;;;;;;;;5065684;28;20059;-74
2022/09/26 00:27:07;;;;;;;13.52;5.43;;;;;;;;;;5067364;28;20044;-73
2022/09/26 00:29:38;;;;;;;15.23;5.22;;;;;;;;;;5069380;28;20060;-73
2022/09/26 00:32:08;;;;;;;12.63;5.82;;;;;;;;;;5066638;28;20052;-74
2022/09/26 00:34:39;;;;;;;13.98;4.70;;;;;;;;;;5058232;28;20360;-72
2022/09/26 00:37:09;;;;;;;11.00;5.68;;;;;;;;;;5039136;28;20044;-75
2022/09/26 00:39:39;;;;;;;7.85;4.38;;;;;;;;;;5057661;28;20519;-77
2022/09/26 00:42:15;;;;;;;12.48;4.88;;;;;;;;;;5059784;28;20522;-76
2022/09/26 00:44:49;;;;;;;9.90;5.25;;;;;;;;;;5059181;28;20047;-73
2022/09/26 00:47:43;;;;;;;13.95;5.78;;;;;;;;;;5055899;28;20057;-74
2022/09/26 00:50:24;;;;;;;8.30;4.68;;;;;;;;;;5057896;28;20044;-72
2022/09/26 00:53:03;;;;;;;9.13;5.05;;;;;;;;;;5058144;28;20049;-75
2022/09/26 00:55:38;;;;;;;9.70;5.85;;;;;;;;;;5058748;28;20048;-72
2022/09/26 00:58:18;;;;;;;16.77;6.97;;;;;;;;;;5057600;28;20052;-73
2022/09/26 01:00:50;;;;;;;27.35;7.68;;;;;;;;;;5058255;28;20048;-74
2022/09/26 01:03:23;;;;;;;10.25;5.10;;;;;;;;;;5057245;28;20045;-74
2022/09/26 01:05:54;;;;;;;14.50;5.80;;;;;;;;;;5057371;28;20041;-71
2022/09/26 01:08:37;;;;;;;11.75;5.93;;;;;;;;;;5057860;28;20056;-76
2022/09/26 01:11:09;;;;;;;14.65;5.80;;;;;;;;;;5056857;28;20060;-74
2022/09/26 01:13:45;;;;;;;15.60;6.38;;;;;;;;;;5058648;28;20033;-73
2022/09/26 01:16:14;;;;;;;9.13;5.32;;;;;;;;;;5056970;28;20515;-71
2022/09/26 01:18:45;;;;;;;12.10;6.93;;;;;;;;;;5055812;28;20037;-74
2022/09/26 01:21:17;;;;;;;14.27;5.85;;;;;;;;;;5054952;28;20052;-72
2022/09/26 01:24:10;;;;;;;11.35;5.43;;;;;;;;;;5057334;28;20048;-73
2022/09/26 01:26:52;;;;;;;13.05;5.13;;;;;;;;;;5056775;28;20045;-75
2022/09/26 01:29:49;;;;;;;11.13;5.50;;;;;;;;;;5056737;28;20060;-76
2022/09/26 01:32:50;;;;;;;11.43;6.53;;;;;;;;;;5060702;28;20515;-72
2022/09/26 01:35:50;;;;;;;13.82;6.85;;;;;;;;;;5066010;28;20059;-74
2022/09/26 01:38:29;;;;;;;11.75;6.20;;;;;;;;;;5068856;28;20507;-72
2022/09/26 01:41:08;;;;;;;13.13;5.88;;;;;;;;;;5067638;28;20434;-74
2022/09/26 01:44:06;;;;;;;18.00;6.72;;;;;;;;;;5067964;28;20056;-76
2022/09/26 01:46:54;;;;;;;15.02;6.30;;;;;;;;;;5066492;28;20059;-73
2022/09/26 01:49:31;;;;;;;13.45;7.05;;;;;;;;;;5073595;28;20052;-71
2022/09/26 01:52:19;;;;;;;20.27;8.52;;;;;;;;;;5073905;28;20052;-73
2022/09/26 01:55:15;;;;;;;14.63;7.13;;;;;;;;;;5053509;28;20064;-74
2022/09/26 01:57:54;;;;;;;17.52;6.82;;;;;;;;;;5047234;28;20056;-74
2022/09/26 02:00:24;;;;;;;17.40;7.57;;;;;;;;;;5045166;28;20045;-75
2022/09/26 02:02:59;;;;;;;14.27;6.82;;;;;;;;;;5044221;28;20799;-75
2022/09/26 02:05:34;;;;;;;12.60;5.95;;;;;;;;;;5047151;28;20396;-71
2022/09/26 02:08:23;;;;;;;12.70;6.32;;;;;;;;;;5047723;28;20052;-74
2022/09/26 02:11:05;;;;;;;12.45;6.38;;;;;;;;;;5045655;28;20064;-75
2022/09/26 02:13:50;;;;;;;14.95;6.70;;;;;;;;;;5045513;28;20056;-73
2022/09/26 02:16:27;;;;;;;12.52;7.03;;;;;;;;;;5045580;28;20064;-74
2022/09/26 02:19:04;;;;;;;13.73;6.45;;;;;;;;;;5044885;28;20056;-73
2022/09/26 02:21:35;;;;;;;9.93;6.47;;;;;;;;;;5045139;28;20640;-71
2022/09/26 02:24:05;;;;;;;15.43;5.90;;;;;;;;;;5045585;28;20055;-74
2022/09/26 02:26:36;;;;;;;14.48;6.85;;;;;;;;;;5045012;28;20063;-73
2022/09/26 02:29:06;;;;;;;13.35;5.43;;;;;;;;;;5044635;28;20067;-73
2022/09/26 02:32:01;;;;;;;12.20;5.50;;;;;;;;;;5045772;28;20459;-75
2022/09/26 02:34:32;;;;;;;10.68;6.43;;;;;;;;;;5046678;28;20048;-73
2022/09/26 02:37:04;;;;;;;15.95;6.75;;;;;;;;;;5045421;28;20060;-74
2022/09/26 02:39:35;;;;;;;10.68;6.00;;;;;;;;;;5044544;28;20064;-75
2022/09/26 02:42:27;;;;;;;10.55;5.93;;;;;;;;;;5046308;28;20065;-74
2022/09/26 02:45:05;;;;;;;11.65;5.85;;;;;;;;;;5045170;28;20519;-71
2022/09/26 02:48:07;;;;;;;11.90;6.53;;;;;;;;;;5029482;28;20064;-74
2022/09/26 02:51:13;;;;;;;15.65;6.63;;;;;;;;;;5027666;28;20060;-71
2022/09/26 02:53:51;;;;;;;;;;;;;;;;;;5047744;28;20045;-72
2022/09/26 02:56:42;;;;;;;12.50;7.13;;;;;;;;;;5044930;28;20403;-76
2022/09/26 02:59:48;;;;;;;16.13;6.60;;;;;;;;;;5046427;28;20047;-76
2022/09/26 03:02:33;;;;;;;17.23;7.15;;;;;;;;;;5031110;28;20053;-73
2022/09/26 03:05:25;;;;;;;11.77;6.28;;;;;;;;;;5044763;28;20052;-76
2022/09/26 03:08:07;;;;;;;15.30;6.90;;;;;;;;;;5044946;28;20062;-73
2022/09/26 03:10:40;;;;;;;13.75;7.65;;;;;;;;;;5045269;28;20053;-72
2022/09/26 03:13:13;;;;;;;16.20;7.45;;;;;;;;;;5045945;28;20053;-76
2022/09/26 03:15:50;;;;;;;11.27;6.53;;;;;;;;;;5044270;28;20053;-77
2022/09/26 03:18:35;;;;;;;12.85;7.32;;;;;;;;;;5044761;28;20053;-76
2022/09/26 03:21:07;;;;;;;13.52;7.25;;;;;;;;;;5044753;28;20048;-74
2022/09/26 03:23:37;;;;;;;15.15;7.50;;;;;;;;;;5044892;28;20598;-75
2022/09/26 03:26:23;;;;;;;11.45;7.75;;;;;;;;;;5044767;28;20057;-74
2022/09/26 03:28:58;;;;;;;13.52;6.85;;;;;;;;;;5044024;28;20052;-77
2022/09/26 03:31:30;;;;;;;13.70;7.15;;;;;;;;;;5044604;28;20068;-72
2022/09/26 03:34:10;;;;;;;14.27;6.93;;;;;;;;;;5043895;28;20060;-76
2022/09/26 03:36:40;;;;;;;10.90;5.80;;;;;;;;;;5043896;28;20055;-76
2022/09/26 03:39:11;;;;;;;11.32;6.18;;;;;;;;;;5044809;28;20561;-75
2022/09/26 03:41:50;;;;;;;16.10;7.60;;;;;;;;;;5045115;28;20068;-73
2022/09/26 03:44:28;;;;;;;13.55;7.45;;;;;;;;;;5044363;28;20504;-73
2022/09/26 03:47:08;;;;;;;14.02;6.72;;;;;;;;;;5045841;28;20049;-72
2022/09/26 03:49:44;;;;;;;11.52;6.55;;;;;;;;;;5046270;28;20048;-76
2022/09/26 03:52:14;;;;;;;13.32;6.32;;;;;;;;;;5044386;28;20057;-71
2022/09/26 03:54:45;;;;;;;14.07;6.55;;;;;;;;;;5044509;28;20400;-76
2022/09/26 03:57:16;;;;;;;13.43;6.38;;;;;;;;;;5044091;28;20064;-75
2022/09/26 03:59:54;;;;;;;12.68;7.15;;;;;;;;;;5044390;28;20064;-74
2022/09/26 04:02:27;;;;;;;;;;;;;;;;;;5047257;28;20057;-74
2022/09/26 04:05:12;;;;;;;12.23;5.65;;;;;;;;;;5048188;28;19924;-72
2022/09/26 04:07:43;;;;;;;11.35;6.53;;;;;;;;;;5032476;28;20063;-75
2022/09/26 04:10:14;;;;;;;10.38;5.60;;;;;;;;;;5047860;28;20072;-74
2022/09/26 04:12:44;;;;;;;12.95;6.82;;;;;;;;;;5049604;28;20052;-72
2022/09/26 04:15:16;;;;;;;13.93;6.10;;;;;;;;;;5047669;28;20072;-73
2022/09/26 04:17:46;;;;;;;9.10;5.07;;;;;;;;;;5047671;28;20517;-78
2022/09/26 04:20:18;;;;;;;10.05;5.40;;;;;;;;;;5047528;28;20053;-76
2022/09/26 04:22:49;;;;;;;10.65;5.85;;;;;;;;;;5047733;28;20053;-73
2022/09/26 04:25:19;;;;;;;10.02;5.60;;;;;;;;;;5047297;28;20056;-75
2022/09/26 04:27:50;;;;;;;12.45;5.90;;;;;;;;;;5047903;28;20053;-75
2022/09/26 04:30:21;;;;;;;9.60;5.43;;;;;;;;;;5048230;28;20418;-72
2022/09/26 04:32:56;;;;;;;10.77;5.45;;;;;;;;;;5047614;28;20072;-75
2022/09/26 04:35:43;;;;;;;9.95;5.10;;;;;;;;;;5047466;28;20059;-77
2022/09/26 04:38:14;;;;;;;7.88;5.10;;;;;;;;;;5048626;28;20041;-76
2022/09/26 04:40:44;;;;;;;8.18;5.15;;;;;;;;;;5047366;28;20053;-73
2022/09/26 04:43:15;;;;;;;12.88;6.53;;;;;;;;;;5047246;28;20052;-74
2022/09/26 04:45:46;;;;;;;14.18;6.05;;;;;;;;;;5047812;28;20052;-74
2022/09/26 04:48:16;;;;;;;8.77;5.80;;;;;;;;;;5048053;28;20538;-74
2022/09/26 04:51:07;;;;;;;10.15;5.93;;;;;;;;;;5049694;28;20057;-77
2022/09/26 04:53:38;;;;;;;16.38;6.40;;;;;;;;;;5047028;28;20053;-74
2022/09/26 04:56:17;;;;;;;14.27;5.75;;;;;;;;;;5047363;28;20523;-75
2022/09/26 04:58:48;;;;;;;8.68;5.43;;;;;;;;;;5047166;28;20056;-74
2022/09/26 05:01:19;;;;;;;11.95;6.30;;;;;;;;;;5046646;28;20057;-74
2022/09/26 05:04:13;;;;;;;10.55;6.00;;;;;;;;;;5046401;28;20053;-74
2022/09/26 05:06:43;;;;;;;12.05;5.63;;;;;;;;;;5047343;28;20045;-74
2022/09/26 05:09:23;;;;;;;11.25;5.57;;;;;;;;;;5045861;28;20059;-73
2022/09/26 05:11:58;;;;;;;11.50;5.65;;;;;;;;;;5046130;28;20056;-75
2022/09/26 05:14:29;;;;;;;7.72;4.65;;;;;;;;;;5046403;28;20053;-73
2022/09/26 05:17:00;;;;;;;10.73;5.30;;;;;;;;;;5046349;28;20053;-71
2022/09/26 05:19:31;;;;;;;6.97;4.82;;;;;;;;;;5047185;28;20405;-75
2022/09/26 05:22:31;;;;;;;8.32;4.97;;;;;;;;;;5045146;28;20060;-74
2022/09/26 05:27:52;;;;;;;10.75;5.57;;;;;;;;;;5048480;28;20053;-75
2022/09/26 05:30:24;;;;;;;8.15;5.57;;;;;;;;;;5045810;28;20064;-75
2022/09/26 05:32:56;;;;;;;11.80;5.93;;;;;;;;;;5048392;28;20045;-75
2022/09/26 05:35:26;;;;;;;8.32;4.95;;;;;;;;;;5046325;28;20053;-73
2022/09/26 05:38:03;;;;;;;10.15;5.60;;;;;;;;;;5046021;28;20064;-75
2022/09/26 05:43:34;;;;;;;13.07;6.47;;;;;;;;;;5046775;28;20469;-74
2022/09/26 05:46:10;;;;;;;7.25;4.43;;;;;;;;;;5046447;28;20393;-74
2022/09/26 05:48:46;;;;;;;10.02;5.00;;;;;;;;;;5045807;28;20053;-72
2022/09/26 05:51:20;;;;;;;14.68;5.30;;;;;;;;;;5030253;28;20064;-75
2022/09/26 05:53:51;;;;;;;7.88;4.65;;;;;;;;;;5045697;28;20057;-75
2022/09/26 05:56:25;;;;;;;8.02;5.72;;;;;;;;;;5046407;28;20053;-73
2022/09/26 05:59:18;;;;;;;11.07;5.75;;;;;;;;;;5047481;28;20049;-73
2022/09/26 06:02:26;;;;;;;9.00;5.18;;;;;;;;;;4986149;28;20054;-71
2022/09/26 06:05:14;;;;;;;7.55;4.95;;;;;;;;;;4989931;28;20058;-74
2022/09/26 06:08:03;;;;;;;14.48;5.28;;;;;;;;;;5034686;28;21174;-74
2022/09/26 06:10:57;;;;;;;8.57;5.22;;;;;;;;;;5046944;28;20049;-75
2022/09/26 06:13:29;;;;;;;9.90;5.13;;;;;;;;;;5046911;28;20514;-77
2022/09/26 06:16:10;;;;;;;9.48;5.57;;;;;;;;;;5045369;28;20060;-76
2022/09/26 06:18:40;;;;;;;7.55;4.97;;;;;;;;;;5046867;28;20057;-70
2022/09/26 06:21:13;;;;;;;8.90;4.25;;;;;;;;;;5045589;28;20431;-72
2022/09/26 06:23:44;;;;;;;8.82;5.55;;;;;;;;;;5045113;28;20053;-71
2022/09/26 06:26:22;;;;;;;10.13;4.80;;;;;;;;;;5045049;28;20053;-73
2022/09/26 06:28:59;;;;;;;12.40;5.18;;;;;;;;;;5045084;28;20053;-75
2022/09/26 06:31:33;;;;;;;11.43;4.60;;;;;;;;;;5045527;28;20041;-75
2022/09/26 06:34:11;;;;;;;9.18;4.28;;;;;;;;;;5052069;28;20523;-75
2022/09/26 06:36:50;;;;;;;8.82;3.80;;;;;;;;;;5044803;28;20049;-74
2022/09/26 06:39:20;;;;;;;8.40;4.88;;;;;;;;;;5046531;28;20049;-77
2022/09/26 06:41:50;;;;;;;8.40;4.78;;;;;;;;;;5044706;28;20496;-73
2022/09/26 06:44:43;;;;;;;8.05;4.53;;;;;;;;;;5036546;28;20681;-73
2022/09/26 06:47:36;;;;;;;7.10;3.90;;;;;;;;;;5045846;28;20052;-76
2022/09/26 06:50:25;;;;;;;5.07;3.30;;;;;;;;;;5045213;28;20537;-76
2022/09/26 06:53:03;;;;;;;7.38;3.88;;;;;;;;;;5045248;28;20076;-73
2022/09/26 06:55:41;;;;;;;7.28;3.47;;;;;;;;;;5044439;28;20049;-75
2022/09/26 06:58:11;;;;;;;6.10;2.63;;;;;;;;;;5045371;28;20053;-76
2022/09/26 07:01:01;;;;;;;4.95;2.97;;;;;;;;;;5046353;28;20087;-75
2022/09/26 07:03:49;;;;;;;5.00;2.97;;;;;;;;;;5050256;28;20052;-76
2022/09/26 07:06:50;;;;;;;10.48;2.42;;;;;;;;;;5044808;28;20080;-76
2022/09/26 07:09:21;;;;;;;3.55;2.10;;;;;;;;;;5044822;28;20057;-77
2022/09/26 07:11:54;;;;;;;4.50;2.00;;;;;;;;;;5045074;28;20408;-75
2022/09/26 07:14:43;;;;;;;3.80;2.35;;;;;;;;;;5044242;28;20048;-76
2022/09/26 07:17:26;;;;;;;3.67;2.22;;;;;;;;;;5044279;28;20052;-75
2022/09/26 07:20:17;;;;;;;3.13;2.25;;;;;;;;;;5044613;28;20128;-71
2022/09/26 07:23:19;;;;;;;4.28;2.00;;;;;;;;;;5034477;28;20061;-72
2022/09/26 07:25:51;;;;;;;5.43;2.00;;;;;;;;;;5043851;28;20423;-72
2022/09/26 07:28:21;;;;;;;4.97;2.33;;;;;;;;;;5045885;28;20060;-74
2022/09/26 07:30:56;;;;;;;3.28;2.47;;;;;;;;;;5044642;28;20056;-76
2022/09/26 07:33:52;;;;;;;4.82;2.50;;;;;;;;;;5045255;28;20061;-73
2022/09/26 07:36:22;;;;;;;3.25;1.92;;;;;;;;;;5046594;28;20052;-73
2022/09/26 07:38:53;;;;;;;4.28;3.00;;;;;;;;;;5048412;28;20059;-72
2022/09/26 07:41:23;;;;;;;5.70;2.25;;;;;;;;;;5048275;28;20044;-72
2022/09/26 07:43:53;;;;;;;4.55;2.30;;;;;;;;;;5049907;28;20056;-74
2022/09/26 07:52:47;;;;;;;3.65;2.13;;;;;;;;;;5053027;28;20057;-72
2022/09/26 07:56:04;;;;;;;4.43;2.47;;;;;;;;;;5046024;28;20065;-74
2022/09/26 07:58:53;;;;;;;6.60;2.30;;;;;;;;;;5021388;28;20543;-73
2022/09/26 08:01:39;;;;;;;6.07;2.60;;;;;;;;;;5047423;28;20399;-73
2022/09/26 08:04:45;;;;;;;4.18;2.30;;;;;;;;;;5040741;28;20073;-75
2022/09/26 08:07:20;;;;;;;7.85;3.10;;;;;;;;;;5048610;28;20037;-72
2022/09/26 08:10:02;;;;;;;5.88;2.83;;;;;;;;;;5047773;28;20507;-76
2022/09/26 08:13:00;;;;;;;3.88;2.50;;;;;;;;;;5026891;28;20053;-72
2022/09/26 08:16:03;;;;;;;4.03;2.28;;;;;;;;;;5025999;28;20053;-72
2022/09/26 08:18:38;;;;;;;6.32;2.60;;;;;;;;;;5047333;28;20056;-76
2022/09/26 08:21:10;;;;;;;3.65;2.72;;;;;;;;;;5047665;28;20775;-76
2022/09/26 08:23:39;;;;;;;3.60;2.10;;;;;;;;;;5047649;28;20063;-75
2022/09/26 08:26:28;;;;;;;5.18;2.72;;;;;;;;;;5054957;28;20061;-72
2022/09/26 08:29:05;;;;;;;4.32;2.60;;;;;;;;;;5047534;28;20076;-73
2022/09/26 08:31:35;;;;;;;6.65;2.20;;;;;;;;;;5047753;28;20520;-75
2022/09/26 08:34:06;;;;;;;3.85;2.15;;;;;;;;;;5047500;28;20427;-75
2022/09/26 08:36:36;;;;;;;5.18;3.25;;;;;;;;;;5047149;28;20053;-74
2022/09/26 08:39:24;;;;;;;5.80;3.10;;;;;;;;;;5053751;28;20053;-74
2022/09/26 08:42:42;;;;;;;5.38;2.70;;;;;;;;;;5050638;28;20049;-71
2022/09/26 08:49:21;;;;;;;9.30;3.00;;;;;;;;;;5048095;28;20519;-74
2022/09/26 08:51:55;;;;;;;6.30;2.65;;;;;;;;;;5047471;28;20057;-73
2022/09/26 08:54:35;;;;;;;6.00;2.53;;;;;;;;;;5047209;28;20108;-71
2022/09/26 08:57:25;;;;;;;6.53;2.55;;;;;;;;;;5031581;28;20422;-73
2022/09/26 08:59:55;;;;;;;5.72;3.13;;;;;;;;;;5047229;28;20057;-74
2022/09/26 09:02:50;;;;;;;4.38;2.97;;;;;;;;;;5047063;28;20056;-75
2022/09/26 09:05:26;;;;;;;3.47;2.28;;;;;;;;;;5031328;28;20053;-73
2022/09/26 09:07:58;;;;;;;5.50;2.67;;;;;;;;;;5046486;28;20057;-76
2022/09/26 09:10:44;;;;;;;5.70;2.67;;;;;;;;;;5046676;28;20049;-73
2022/09/26 09:13:44;;;;;;;6.07;2.95;;;;;;;;;;5046807;28;20059;-77
2022/09/26 09:17:00;;;;;;;8.00;2.55;;;;;;;;;;5053790;28;20592;-76
2022/09/26 09:20:25;;;;;;;5.25;2.85;;;;;;;;;;5047671;28;20057;-73
2022/09/26 09:23:51;;;;;;;6.53;3.35;;;;;;;;;;4948426;28;20514;-73
2022/09/26 09:26:40;;;;;;;7.95;2.45;;;;;;;;;;5044170;28;20049;-77
2022/09/26 09:29:57;;;;;;;4.80;3.00;;;;;;;;;;5045889;28;20053;-75
2022/09/26 09:33:00;;;;;;;7.82;3.10;;;;;;;;;;5048911;28;20048;-73
2022/09/26 09:36:13;;;;;;;5.07;2.60;;;;;;;;;;5046281;28;20053;-70
2022/09/26 09:39:06;;;;;;;9.45;2.85;;;;;;;;;;5016158;28;20068;-76
2022/09/26 09:41:57;;;;;;;7.57;3.13;;;;;;;;;;5046353;28;20045;-78
2022/09/26 09:44:36;;;;;;;8.45;3.22;;;;;;;;;;5046351;28;20555;-73
2022/09/26 09:47:18;;;;;;;4.50;2.70;;;;;;;;;;5047788;28;20041;-77
2022/09/26 09:49:50;;;;;;;4.72;2.47;;;;;;;;;;5048784;28;20056;-74
2022/09/26 09:52:45;;;;;;;6.93;2.90;;;;;;;;;;5046603;28;20853;-73
2022/09/26 09:55:51;;;;;;;9.52;3.67;;;;;;;;;;5046424;28;20060;-73
2022/09/26 09:58:45;;;;;;;6.25;3.45;;;;;;;;;;5047253;28;20053;-73
2022/09/26 10:01:40;;;;;;;11.23;4.57;;;;;;;;;;5029780;28;20068;-75
2022/09/26 10:04:35;;;;;;;10.63;3.47;;;;;;;;;;5045435;28;20049;-74
2022/09/26 10:07:05;;;;;;;7.03;3.10;;;;;;;;;;5045151;28;20052;-71
2022/09/26 10:09:40;;;;;;;4.65;3.25;;;;;;;;;;5045575;28;20049;-74
2022/09/26 10:12:31;;;;;;;5.80;3.90;;;;;;;;;;5047559;28;20048;-75
2022/09/26 10:15:26;;;;;;;4.75;2.60;;;;;;;;;;5046983;28;20065;-77
2022/09/26 10:18:14;;;;;;;7.35;3.08;;;;;;;;;;5049313;28;20068;-74
2022/09/26 10:21:16;;;;;;;5.93;2.30;;;;;;;;;;5046915;28;20053;-72
2022/09/26 10:23:49;;;;;;;6.25;2.88;;;;;;;;;;5045745;28;20056;-73
2022/09/26 10:26:51;;;;;;;6.13;2.80;;;;;;;;;;5027039;28;20048;-75
2022/09/26 10:29:35;;;;;;;4.18;2.28;;;;;;;;;;5030648;28;20392;-74
2022/09/26 10:32:08;;;;;;;5.30;2.97;;;;;;;;;;5044885;28;20059;-73
2022/09/26 10:34:41;;;;;;;6.63;2.47;;;;;;;;;;5045157;28;20064;-72
2022/09/26 10:37:24;;;;;;;6.10;2.30;;;;;;;;;;5047661;28;20049;-75
2022/09/26 10:43:50;;;;;;;9.07;2.80;;;;;;;;;;5046787;28;20049;-76
2022/09/26 10:46:50;;;;;;;10.35;2.63;;;;;;;;;;5007990;28;20057;-75
2022/09/26 10:49:52;;;;;;;15.85;4.45;;;;;;;;;;5022727;28;20057;-72
2022/09/26 10:52:44;;;;;;;;;;;;;;;;;;5051221;28;20053;-75
2022/09/26 10:55:36;;;;;;;11.25;3.25;;;;;;;;;;5045101;28;19925;-74
2022/09/26 10:58:16;;;;;;;10.85;2.33;;;;;;;;;;5050104;28;20069;-74
2022/09/26 11:00:51;;;;;;;7.68;2.47;;;;;;;;;;5053412;28;20057;-77
2022/09/26 11:03:40;;;;;;;6.07;2.17;;;;;;;;;;5044715;28;20063;-75
2022/09/26 11:06:35;;;;;;;9.80;3.25;;;;;;;;;;5046226;28;20051;-74
2022/09/26 11:09:22;;;;;;;7.10;2.28;;;;;;;;;;5044682;28;20056;-73
2022/09/26 11:12:28;;;;;;;10.25;1.80;;;;;;;;;;5049037;28;20065;-73
2022/09/26 11:15:12;;;;;;;6.57;2.20;;;;;;;;;;5044892;28;20056;-72
2022/09/26 11:17:48;;;;;;;12.98;2.70;;;;;;;;;;5044727;28;20622;-75
2022/09/26 11:20:46;;;;;;;6.75;1.80;;;;;;;;;;5044396;28;20052;-74
2022/09/26 11:23:39;;;;;;;6.15;1.90;;;;;;;;;;5044426;28;20053;-74
2022/09/26 11:26:34;;;;;;;7.00;2.22;;;;;;;;;;5044714;28;20045;-73
2022/09/26 11:29:33;;;;;;;2.75;1.90;;;;;;;;;;5044963;28;20057;-75
2022/09/26 11:32:18;;;;;;;8.00;2.22;;;;;;;;;;5044759;28;20140;-77
2022/09/26 11:35:01;;;;;;;21.85;8.85;;;;;;;;;;5047392;28;20064;-76
2022/09/26 11:38:13;;;;;;;10.52;2.92;;;;;;;;;;5041438;28;20049;-78
2022/09/26 11:41:06;;;;;;;5.43;1.73;;;;;;;;;;5038072;28;20670;-76
2022/09/26 11:43:47;;;;;;;9.52;3.00;;;;;;;;;;5041833;28;20521;-75
2022/09/26 11:47:12;;;;;;;4.32;1.88;;;;;;;;;;5043752;28;20053;-75
2022/09/26 11:50:02;;;;;;;7.90;1.75;;;;;;;;;;5043684;28;20080;-76
2022/09/26 11:53:01;;;;;;;6.88;1.58;;;;;;;;;;5051992;28;20041;-75
2022/09/26 11:55:51;;;;;;;9.30;1.85;;;;;;;;;;5046230;28;20519;-74
2022/09/26 11:58:46;;;;;;;5.03;1.77;;;;;;;;;;5046116;28;20056;-72
2022/09/26 12:01:29;;;;;;;5.53;1.98;;;;;;;;;;5045707;28;20526;-72
2022/09/26 12:04:26;;;;;;;3.90;2.10;;;;;;;;;;5045473;28;20767;-73
2022/09/26 12:07:09;;;;;;;17.10;2.90;;;;;;;;;;5046055;28;20130;-75
2022/09/26 12:10:00;;;;;;;3.08;1.60;;;;;;;;;;5046342;28;20049;-75
2022/09/26 12:12:40;;;;;;;7.65;2.10;;;;;;;;;;5045902;28;20037;-73
2022/09/26 12:15:28;;;;;;;2.38;1.67;;;;;;;;;;5045825;28;20044;-76
2022/09/26 12:18:27;;;;;;;3.33;1.73;;;;;;;;;;5045899;28;20499;-71
2022/09/26 12:21:21;;;;;;;3.50;1.50;;;;;;;;;;5045554;28;20045;-75
2022/09/26 12:23:56;;;;;;;4.00;1.80;;;;;;;;;;5047818;28;20052;-73
2022/09/26 12:26:28;;;;;;;3.88;1.80;;;;;;;;;;5049778;28;20060;-75
2022/09/26 12:29:17;;;;;;;3.03;1.90;;;;;;;;;;5047971;28;20048;-72
2022/09/26 12:31:49;;;;;;;;;;;;;;;;;;5050042;28;20052;-75
2022/09/26 12:34:36;;;;;;;5.88;1.95;;;;;;;;;;5047777;28;19928;-75
2022/09/26 12:37:18;;;;;;;4.13;1.95;;;;;;;;;;5048983;28;20037;-76
2022/09/26 12:40:09;;;;;;;5.88;2.30;;;;;;;;;;5049184;28;20049;-75
2022/09/26 12:43:04;;;;;;;3.33;1.70;;;;;;;;;;5048639;28;20055;-76
2022/09/26 12:45:55;;;;;;;2.55;1.42;;;;;;;;;;5047887;28;20068;-73
2022/09/26 12:49:09;;;;;;;13.18;2.67;;;;;;;;;;5048638;28;20045;-74
2022/09/26 12:51:42;;;;;;;7.43;2.35;;;;;;;;;;5049325;28;20044;-76
2022/09/26 12:54:35;;;;;;;4.25;2.05;;;;;;;;;;5048802;28;20420;-74
2022/09/26 12:57:23;;;;;;;;;;;;;;;;;;5049284;28;20516;-73
2022/09/26 12:59:59;;;;;;;2.72;1.77;;;;;;;;;;5048848;28;19924;-74
2022/09/26 13:02:40;;;;;;;5.25;2.17;;;;;;;;;;5049029;28;20503;-74
2022/09/26 13:05:48;;;;;;;2.33;1.45;;;;;;;;;;5049631;28;20526;-76
2022/09/26 13:08:57;;;;;;;8.82;3.15;;;;;;;;;;5049162;28;20411;-72
2022/09/26 13:11:55;;;;;;;7.75;2.10;;;;;;;;;;5048233;28;20514;-72
2022/09/26 13:14:59;;;;;;;2.38;1.83;;;;;;;;;;5048865;28;20052;-72
2022/09/26 13:17:40;;;;;;;3.53;1.80;;;;;;;;;;5041292;28;20079;-75
2022/09/26 13:20:17;;;;;;;3.35;1.50;;;;;;;;;;5048233;28;20710;-73
2022/09/26 13:22:53;;;;;;;4.25;1.58;;;;;;;;;;5048946;28;20055;-71
2022/09/26 13:25:35;;;;;;;2.88;1.95;;;;;;;;;;5048789;28;20068;-73
2022/09/26 13:28:29;;;;;;;4.35;2.25;;;;;;;;;;5048604;28;20044;-73
2022/09/26 13:31:04;;;;;;;4.95;1.75;;;;;;;;;;5042782;28;20067;-75
2022/09/26 13:33:41;;;;;;;7.68;5.30;;;;;;;;;;5049473;28;20049;-76
2022/09/26 13:36:13;;;;;;;5.13;1.95;;;;;;;;;;5046571;28;20396;-76
2022/09/26 13:38:50;;;;;;;7.70;2.90;;;;;;;;;;5047540;28;20049;-74
2022/09/26 13:41:35;;;;;;;6.75;2.05;;;;;;;;;;5048279;28;20496;-73
2022/09/26 13:44:27;;;;;;;15.65;4.10;;;;;;;;;;5047635;28;20036;-72
2022/09/26 13:47:12;;;;;;;4.47;2.53;;;;;;;;;;5048252;28;20052;-73
2022/09/26 13:49:54;;;;;;;6.53;2.50;;;;;;;;;;5048195;28;20072;-74
2022/09/26 13:52:29;;;;;;;5.75;2.80;;;;;;;;;;5050862;28;20057;-73
2022/09/26 13:55:13;;;;;;;10.70;4.68;;;;;;;;;;5048256;28;20040;-75
2022/09/26 13:57:51;;;;;;;5.90;2.70;;;;;;;;;;5048700;28;20052;-78
2022/09/26 14:00:37;;;;;;;8.45;2.92;;;;;;;;;;5047629;28;20060;-75
2022/09/26 14:03:14;;;;;;;4.63;2.80;;;;;;;;;;5048084;28;20057;-75
2022/09/26 14:05:46;;;;;;;3.65;2.47;;;;;;;;;;5047982;28;20049;-71
2022/09/26 14:11:29;;;;;;;8.55;2.67;;;;;;;;;;5047844;28;20045;-76
2022/09/26 14:14:18;;;;;;;4.05;2.47;;;;;;;;;;5045598;28;20045;-72
2022/09/26 14:17:01;;;;;;;9.65;4.18;;;;;;;;;;5047362;28;20041;-76
2022/09/26 14:19:48;;;;;;;6.07;3.10;;;;;;;;;;5047764;28;20053;-73
2022/09/26 14:22:19;;;;;;;6.28;1.98;;;;;;;;;;5047415;28;20052;-75
2022/09/26 14:24:50;;;;;;;5.72;2.45;;;;;;;;;;5047358;28;20052;-74
2022/09/26 14:27:35;;;;;;;7.13;2.22;;;;;;;;;;5046871;28;20061;-77
2022/09/26 14:30:28;;;;;;;5.53;2.10;;;;;;;;;;5046486;28;20575;-78
2022/09/26 14:33:11;;;;;;;10.90;3.00;;;;;;;;;;5045218;28;20064;-74
2022/09/26 14:35:42;;;;;;;5.93;2.47;;;;;;;;;;5047283;28;20052;-74
2022/09/26 14:38:19;;;;;;;7.80;2.40;;;;;;;;;;5047152;28;20427;-75
2022/09/26 14:40:56;;;;;;;5.20;1.83;;;;;;;;;;5045186;28;20075;-77
2022/09/26 14:43:30;;;;;;;7.55;2.90;;;;;;;;;;5047721;28;20111;-76
2022/09/26 14:46:21;;;;;;;4.75;2.10;;;;;;;;;;5046640;28;20041;-76
2022/09/26 14:49:02;;;;;;;2.83;1.48;;;;;;;;;;5047220;28;20386;-76
2022/09/26 14:51:35;;;;;;;3.90;2.00;;;;;;;;;;5046610;28;20045;-72
2022/09/26 14:54:24;;;;;;;12.25;4.95;;;;;;;;;;5047326;28;20056;-78
2022/09/26 14:57:03;;;;;;;5.97;2.22;;;;;;;;;;5047171;28;20057;-74
2022/09/26 14:59:33;;;;;;;3.30;2.05;;;;;;;;;;5046936;28;20041;-74
2022/09/26 15:02:33;;;;;;;6.00;2.42;;;;;;;;;;5047461;28;20076;-77
2022/09/26 15:05:22;;;;;;;4.95;2.20;;;;;;;;;;5046541;28;20044;-75
2022/09/26 15:07:55;;;;;;;5.47;2.13;;;;;;;;;;5046929;28;20045;-78
2022/09/26 15:10:40;;;;;;;2.67;1.58;;;;;;;;;;5047177;28;20060;-76
2022/09/26 15:13:36;;;;;;;7.40;3.45;;;;;;;;;;5046553;28;20049;-73
2022/09/26 15:16:25;;;;;;;3.50;2.22;;;;;;;;;;5046770;28;20045;-72
2022/09/26 15:19:12;;;;;;;6.85;3.47;;;;;;;;;;5046098;28;20060;-77
2022/09/26 15:21:47;;;;;;;8.43;2.60;;;;;;;;;;5047744;28;20056;-74
2022/09/26 15:24:28;;;;;;;3.33;1.95;;;;;;;;;;5046881;28;20052;-75
2022/09/26 15:27:25;;;;;;;3.80;2.22;;;;;;;;;;5045336;28;20049;-74
2022/09/26 15:30:14;;;;;;;7.10;2.33;;;;;;;;;;5047411;28;20060;-76
2022/09/26 15:32:49;;;;;;;4.55;2.20;;;;;;;;;;5046479;28;20053;-78
2022/09/26 15:35:19;;;;;;;5.45;2.45;;;;;;;;;;5046001;28;20052;-74
2022/09/26 15:37:49;;;;;;;4.57;2.85;;;;;;;;;;5046243;28;20420;-77
2022/09/26 15:40:24;;;;;;;5.30;2.42;;;;;;;;;;5046356;28;20440;-75
2022/09/26 15:43:21;;;;;;;4.68;2.20;;;;;;;;;;5046173;28;20062;-75
2022/09/26 15:45:59;;;;;;;7.78;2.90;;;;;;;;;;5045545;28;20064;-74
2022/09/26 15:48:43;;;;;;;7.57;2.60;;;;;;;;;;5045337;28;20049;-77
2022/09/26 15:51:24;;;;;;;8.98;2.70;;;;;;;;;;5046999;28;20041;-72
2022/09/26 15:53:59;;;;;;;;;;;;;;;;;;5046956;28;20428;-76
2022/09/26 15:56:37;;;;;;;4.68;2.58;;;;;;;;;;5047589;28;19931;-74
2022/09/26 15:59:25;;;;;;;6.30;3.00;;;;;;;;;;5050961;28;20765;-74
2022/09/26 16:01:55;;;;;;;4.85;2.38;;;;;;;;;;5050004;28;20048;-72
2022/09/26 16:04:28;;;;;;;6.20;2.47;;;;;;;;;;5049528;28;20041;-75
2022/09/26 16:07:19;;;;;;;5.22;2.47;;;;;;;;;;5050008;28;20059;-74
2022/09/26 16:09:50;;;;;;;5.28;2.72;;;;;;;;;;5050126;28;20063;-77
2022/09/26 16:12:30;;;;;;;9.65;2.85;;;;;;;;;;5048400;28;20045;-75
2022/09/26 16:15:02;;;;;;;4.32;2.10;;;;;;;;;;5049134;28;20041;-74
2022/09/26 16:17:37;;;;;;;3.63;2.47;;;;;;;;;;5049449;28;20072;-75
2022/09/26 16:20:16;;;;;;;3.97;2.25;;;;;;;;;;5050245;28;20040;-71
2022/09/26 16:22:57;;;;;;;4.97;2.80;;;;;;;;;;5050661;28;20403;-77
2022/09/26 16:25:46;;;;;;;6.63;2.33;;;;;;;;;;5049348;28;20053;-72
2022/09/26 16:28:17;;;;;;;6.05;2.42;;;;;;;;;;5049605;28;20056;-72
2022/09/26 16:31:07;;;;;;;4.38;2.17;;;;;;;;;;5049457;28;20132;-74
2022/09/26 16:33:41;;;;;;;5.20;2.33;;;;;;;;;;5049535;28;20049;-74